createdAt,value
2022-08-11T00:00:03.508Z,17.06
2022-08-11T00:01:03.594Z,17.06
2022-08-11T00:02:03.593Z,17.06
2022-08-11T00:03:03.647Z,17.00
2022-08-11T00:04:03.602Z,17.00
2022-08-11T00:05:03.590Z,17.00
2022-08-11T00:06:03.591Z,16.94
2022-08-11T00:07:03.585Z,16.94
2022-08-11T00:08:03.655Z,16.94
2022-08-11T00:09:03.695Z,16.88
2022-08-11T00:10:03.831Z,16.88
2022-08-11T00:11:04.623Z,16.88
2022-08-11T00:12:03.580Z,16.88
2022-08-11T00:13:03.744Z,16.81
2022-08-11T00:14:03.670Z,16.81
2022-08-11T00:15:03.679Z,16.81
2022-08-11T00:16:03.662Z,16.81
2022-08-11T00:17:03.841Z,16.81
2022-08-11T00:18:03.847Z,16.75
2022-08-11T00:19:03.745Z,16.75
2022-08-11T00:20:11.168Z,16.75
2022-08-11T00:21:03.742Z,16.75
2022-08-11T00:22:05.444Z,16.75
2022-08-11T00:23:03.825Z,16.69
2022-08-11T00:24:04.836Z,16.69
2022-08-11T00:25:03.751Z,16.62
2022-08-11T00:26:03.825Z,16.62
2022-08-11T00:27:03.822Z,16.62
2022-08-11T00:28:03.663Z,16.62
2022-08-11T00:29:03.831Z,16.56
2022-08-11T00:30:04.222Z,16.56
2022-08-11T00:31:04.483Z,16.56
2022-08-11T00:32:04.297Z,16.56
2022-08-11T00:33:04.298Z,16.50
2022-08-11T00:34:04.396Z,16.50
2022-08-11T00:35:50.668Z,16.50
2022-08-11T00:36:04.227Z,16.50
2022-08-11T00:37:05.670Z,16.44
2022-08-11T00:38:03.825Z,16.44
2022-08-11T00:39:03.742Z,16.44
2022-08-11T00:40:03.844Z,16.38
2022-08-11T00:41:03.910Z,16.38
2022-08-11T00:42:03.901Z,16.38
2022-08-11T00:43:03.914Z,16.38
2022-08-11T00:44:03.913Z,16.38
2022-08-11T00:45:03.913Z,16.38
2022-08-11T00:46:03.910Z,16.31
2022-08-11T00:47:03.905Z,16.31
2022-08-11T00:48:04.069Z,16.31
2022-08-11T00:49:03.507Z,16.31
2022-08-11T00:50:03.507Z,16.25
2022-08-11T00:51:04.037Z,16.25
2022-08-11T00:52:06.143Z,16.25
2022-08-11T00:53:03.826Z,16.19
2022-08-11T00:54:03.906Z,16.19
2022-08-11T00:55:03.848Z,16.19
2022-08-11T00:56:03.912Z,16.19
2022-08-11T00:57:04.010Z,16.19
2022-08-11T00:58:04.234Z,16.12
2022-08-11T00:59:04.327Z,16.12
2022-08-11T01:00:04.337Z,16.12
2022-08-11T01:01:04.415Z,16.06
2022-08-11T01:02:04.381Z,16.06
2022-08-11T01:03:04.475Z,16.00
2022-08-11T01:04:03.597Z,16.00
2022-08-11T01:05:03.593Z,16.00
2022-08-11T01:06:03.599Z,15.94
2022-08-11T01:07:03.669Z,15.94
2022-08-11T01:08:03.787Z,15.94
2022-08-11T01:09:03.760Z,15.88
2022-08-11T01:10:06.645Z,15.88
2022-08-11T01:11:03.747Z,15.88
2022-08-11T01:12:03.755Z,15.88
2022-08-11T01:13:03.672Z,15.88
2022-08-11T01:14:03.662Z,15.81
2022-08-11T01:15:03.749Z,15.81
2022-08-11T01:16:03.748Z,15.69
2022-08-11T01:17:03.770Z,15.69
2022-08-11T01:18:03.825Z,15.69
2022-08-11T01:20:46.317Z,15.69
2022-08-11T01:21:03.927Z,15.69
2022-08-11T01:22:03.918Z,15.69
2022-08-11T01:23:03.931Z,15.69
2022-08-11T01:24:03.829Z,15.69
2022-08-11T01:25:03.939Z,15.62
2022-08-11T01:26:03.913Z,15.62
2022-08-11T01:27:03.988Z,15.62
2022-08-11T01:28:04.151Z,15.62
2022-08-11T01:29:03.534Z,15.62
2022-08-11T01:30:03.515Z,15.56
2022-08-11T01:31:03.586Z,15.56
2022-08-11T01:32:03.556Z,15.56
2022-08-11T01:33:04.071Z,15.56
2022-08-11T01:34:04.080Z,15.56
2022-08-11T01:35:04.221Z,15.56
2022-08-11T01:36:04.229Z,15.56
2022-08-11T01:37:04.065Z,15.56
2022-08-11T01:38:04.152Z,15.50
2022-08-11T01:39:04.172Z,15.56
2022-08-11T01:40:04.154Z,15.50
2022-08-11T01:41:04.137Z,15.50
2022-08-11T01:42:04.145Z,15.50
2022-08-11T01:43:04.229Z,15.44
2022-08-11T01:44:04.325Z,15.44
2022-08-11T01:45:04.480Z,15.44
2022-08-11T01:46:04.401Z,15.44
2022-08-11T01:47:04.317Z,15.44
2022-08-11T01:48:04.398Z,15.38
2022-08-11T01:49:29.210Z,15.38
2022-08-11T01:50:09.162Z,15.31
2022-08-11T01:51:03.504Z,15.31
2022-08-11T01:52:03.503Z,15.25
2022-08-11T01:53:03.505Z,15.25
2022-08-11T01:54:03.515Z,15.25
2022-08-11T01:55:03.516Z,15.25
2022-08-11T01:56:03.543Z,15.25
2022-08-11T01:57:03.532Z,15.25
2022-08-11T01:58:03.506Z,15.25
2022-08-11T01:59:03.501Z,15.25
2022-08-11T02:00:03.583Z,15.25
2022-08-11T02:01:03.750Z,15.25
2022-08-11T02:02:03.666Z,15.25
2022-08-11T02:03:03.677Z,15.19
2022-08-11T02:04:03.755Z,15.19
2022-08-11T02:05:03.673Z,15.25
2022-08-11T02:06:03.860Z,15.19
2022-08-11T02:07:03.752Z,15.12
2022-08-11T02:08:03.937Z,15.12
2022-08-11T02:09:03.903Z,15.12
2022-08-11T02:10:03.978Z,15.12
2022-08-11T02:11:04.805Z,15.12
2022-08-11T02:12:04.074Z,15.12
2022-08-11T02:13:04.076Z,15.12
2022-08-11T02:14:04.084Z,15.06
2022-08-11T02:15:04.851Z,15.06
2022-08-11T02:16:04.073Z,15.06
2022-08-11T02:17:04.147Z,15.06
2022-08-11T02:18:03.682Z,15.06
2022-08-11T02:19:03.707Z,15.06
2022-08-11T02:20:03.819Z,15.06
2022-08-11T02:21:03.747Z,15.06
2022-08-11T02:22:03.843Z,15.06
2022-08-11T02:23:04.083Z,15.00
2022-08-11T02:24:07.444Z,15.00
2022-08-11T02:25:04.298Z,15.00
2022-08-11T02:26:04.397Z,15.00
2022-08-11T02:27:04.553Z,15.00
2022-08-11T02:28:03.508Z,15.00
2022-08-11T02:29:03.497Z,15.00
2022-08-11T02:30:03.507Z,15.00
2022-08-11T02:31:03.525Z,15.00
2022-08-11T02:32:05.165Z,14.94
2022-08-11T02:33:03.661Z,14.94
2022-08-11T02:34:03.663Z,14.94
2022-08-11T02:35:03.825Z,14.94
2022-08-11T02:36:03.829Z,14.88
2022-08-11T02:37:03.816Z,14.88
2022-08-11T02:38:03.821Z,14.88
2022-08-11T02:39:03.903Z,14.88
2022-08-11T02:40:04.143Z,14.88
2022-08-11T02:41:04.069Z,14.88
2022-08-11T02:42:04.059Z,14.88
2022-08-11T02:43:04.166Z,14.88
2022-08-11T02:44:04.177Z,14.88
2022-08-11T02:45:04.146Z,14.81
2022-08-11T02:46:04.383Z,14.81
2022-08-11T02:47:04.469Z,14.81
2022-08-11T02:48:03.515Z,14.81
2022-08-11T02:49:03.520Z,14.81
2022-08-11T02:50:07.019Z,14.75
2022-08-11T02:51:03.497Z,14.75
2022-08-11T02:52:03.589Z,14.75
2022-08-11T02:53:03.753Z,14.75
2022-08-11T02:54:03.667Z,14.75
2022-08-11T02:55:04.086Z,14.69
2022-08-11T02:56:04.153Z,14.69
2022-08-11T02:57:03.495Z,14.69
2022-08-11T02:58:04.034Z,14.69
2022-08-11T02:59:03.677Z,14.62
2022-08-11T03:00:04.227Z,14.62
2022-08-11T03:01:04.392Z,14.62
2022-08-11T03:02:04.719Z,14.62
2022-08-11T03:03:03.828Z,14.62
2022-08-11T03:04:03.826Z,14.62
2022-08-11T03:05:04.730Z,14.62
2022-08-11T03:06:03.741Z,14.62
2022-08-11T03:07:03.764Z,14.62
2022-08-11T03:08:03.822Z,14.56
2022-08-11T03:09:03.826Z,14.56
2022-08-11T03:10:03.781Z,14.56
2022-08-11T03:11:03.819Z,14.50
2022-08-11T03:12:03.928Z,14.50
2022-08-11T03:13:03.906Z,14.50
2022-08-11T03:14:03.818Z,14.50
2022-08-11T03:15:03.825Z,14.44
2022-08-11T03:16:03.835Z,14.44
2022-08-11T03:17:03.828Z,14.44
2022-08-11T03:18:03.908Z,14.50
2022-08-11T03:19:03.825Z,14.50
2022-08-11T03:20:03.985Z,14.50
2022-08-11T03:21:04.242Z,14.44
2022-08-11T03:22:06.495Z,14.44
2022-08-11T03:23:04.474Z,14.44
2022-08-11T03:24:04.470Z,14.44
2022-08-11T03:25:04.487Z,14.44
2022-08-11T03:26:04.396Z,14.38
2022-08-11T03:27:04.394Z,14.38
2022-08-11T03:28:04.402Z,14.31
2022-08-11T03:29:03.433Z,14.31
2022-08-11T03:30:03.588Z,14.31
2022-08-11T03:31:03.663Z,14.25
2022-08-11T03:32:03.670Z,14.25
2022-08-11T03:33:03.736Z,14.25
2022-08-11T03:34:06.531Z,14.25
2022-08-11T03:35:03.918Z,14.25
2022-08-11T03:36:03.902Z,14.25
2022-08-11T03:37:15.796Z,14.25
2022-08-11T03:38:04.067Z,14.25
2022-08-11T03:39:04.140Z,14.25
2022-08-11T03:40:04.294Z,14.19
2022-08-11T03:41:04.163Z,14.19
2022-08-11T03:42:06.848Z,14.19
2022-08-11T03:43:04.069Z,14.19
2022-08-11T03:44:04.078Z,14.19
2022-08-11T03:45:04.078Z,14.19
2022-08-11T03:46:04.085Z,14.19
2022-08-11T03:47:04.176Z,14.19
2022-08-11T03:48:04.159Z,14.19
2022-08-11T03:49:04.080Z,14.19
2022-08-11T03:50:04.159Z,14.19
2022-08-11T03:51:04.166Z,14.19
2022-08-11T03:52:04.144Z,14.19
2022-08-11T03:53:04.149Z,14.19
2022-08-11T03:54:03.994Z,14.12
2022-08-11T03:55:03.988Z,14.12
2022-08-11T03:56:03.981Z,14.12
2022-08-11T03:57:04.075Z,14.12
2022-08-11T03:58:03.980Z,14.12
2022-08-11T03:59:04.077Z,14.12
2022-08-11T04:00:04.066Z,14.12
2022-08-11T04:01:04.007Z,14.12
2022-08-11T04:02:04.123Z,14.06
2022-08-11T04:03:03.983Z,14.06
2022-08-11T04:04:04.070Z,14.12
2022-08-11T04:05:04.065Z,14.12
2022-08-11T04:06:04.234Z,14.06
2022-08-11T04:07:04.149Z,14.06
2022-08-11T04:08:04.154Z,14.06
2022-08-11T04:09:04.067Z,14.06
2022-08-11T04:10:04.065Z,14.06
2022-08-11T04:11:04.065Z,14.12
2022-08-11T04:12:04.144Z,14.12
2022-08-11T04:13:04.223Z,14.06
2022-08-11T04:14:04.229Z,14.06
2022-08-11T04:15:04.314Z,14.06
2022-08-11T04:16:11.179Z,14.06
2022-08-11T04:17:04.223Z,14.12
2022-08-11T04:18:04.399Z,14.12
2022-08-11T04:19:04.405Z,14.12
2022-08-11T04:20:03.516Z,14.12
2022-08-11T04:21:03.499Z,14.12
2022-08-11T04:22:03.518Z,14.12
2022-08-11T04:23:03.752Z,14.19
2022-08-11T04:24:12.795Z,14.12
2022-08-11T04:25:04.078Z,14.19
2022-08-11T04:26:04.606Z,14.12
2022-08-11T04:27:04.959Z,14.19
2022-08-11T04:28:03.603Z,14.19
2022-08-11T04:29:09.439Z,14.19
2022-08-11T04:30:04.949Z,14.19
2022-08-11T04:31:03.675Z,14.19
2022-08-11T04:32:03.661Z,14.19
2022-08-11T04:33:03.747Z,14.19
2022-08-11T04:34:03.827Z,14.19
2022-08-11T04:35:03.913Z,14.25
2022-08-11T04:36:04.069Z,14.31
2022-08-11T04:37:04.065Z,14.38
2022-08-11T04:38:03.987Z,14.38
2022-08-11T04:39:04.143Z,14.44
2022-08-11T04:40:04.229Z,14.44
2022-08-11T04:41:04.232Z,14.50
2022-08-11T04:42:04.228Z,14.62
2022-08-11T04:43:04.228Z,14.75
2022-08-11T04:44:05.942Z,14.88
2022-08-11T04:45:04.308Z,15.00
2022-08-11T04:46:04.403Z,15.19
2022-08-11T04:47:04.394Z,15.31
2022-08-11T04:48:04.823Z,15.44
2022-08-11T04:49:04.401Z,15.62
2022-08-11T04:50:04.398Z,15.81
2022-08-11T04:51:08.974Z,16.00
2022-08-11T04:52:03.519Z,16.25
2022-08-11T04:53:03.599Z,16.44
2022-08-11T04:54:03.588Z,16.69
2022-08-11T04:55:03.674Z,16.88
2022-08-11T04:56:03.763Z,17.12
2022-08-11T04:57:03.894Z,17.38
2022-08-11T04:58:03.915Z,17.62
2022-08-11T04:59:03.829Z,17.88
2022-08-11T05:00:03.988Z,18.12
2022-08-11T05:01:03.907Z,18.44
2022-08-11T05:02:04.101Z,18.75
2022-08-11T05:03:04.065Z,19.06
2022-08-11T05:04:04.148Z,19.38
2022-08-11T05:05:04.233Z,19.75
2022-08-11T05:06:04.305Z,20.06
2022-08-11T05:07:04.312Z,20.44
2022-08-11T05:08:04.479Z,20.81
2022-08-11T05:09:04.465Z,21.19
2022-08-11T05:10:04.379Z,21.62
2022-08-11T05:11:03.505Z,22.00
2022-08-11T05:12:03.666Z,22.44
2022-08-11T05:13:03.599Z,22.81
2022-08-11T05:14:03.756Z,23.19
2022-08-11T05:15:03.836Z,23.56
2022-08-11T05:16:03.988Z,23.94
2022-08-11T05:17:04.067Z,24.38
2022-08-11T05:18:04.146Z,24.75
2022-08-11T05:19:03.995Z,25.06
2022-08-11T05:20:03.980Z,25.44
2022-08-11T05:21:05.087Z,25.75
2022-08-11T05:22:04.245Z,26.12
2022-08-11T05:23:04.326Z,26.50
2022-08-11T05:24:04.402Z,26.81
2022-08-11T05:25:04.496Z,27.12
2022-08-11T05:26:09.056Z,27.44
2022-08-11T05:27:03.511Z,27.69
2022-08-11T05:28:03.586Z,27.94
2022-08-11T05:29:19.240Z,28.12
2022-08-11T05:30:03.842Z,28.38
2022-08-11T05:31:03.747Z,28.75
2022-08-11T05:32:03.741Z,29.06
2022-08-11T05:33:04.488Z,29.25
2022-08-11T05:34:03.499Z,29.44
2022-08-11T05:35:03.673Z,29.69
2022-08-11T05:36:03.680Z,29.81
2022-08-11T05:37:24.132Z,30.06
2022-08-11T05:38:03.753Z,30.19
2022-08-11T05:39:03.739Z,30.38
2022-08-11T05:40:03.828Z,30.56
2022-08-11T05:41:03.829Z,30.69
2022-08-11T05:42:03.918Z,30.81
2022-08-11T05:43:03.994Z,31.06
2022-08-11T05:44:19.293Z,31.38
2022-08-11T05:45:04.012Z,31.56
2022-08-11T05:46:05.590Z,31.81
2022-08-11T05:47:04.231Z,32.00
2022-08-11T05:48:04.233Z,32.12
2022-08-11T05:49:04.233Z,32.31
2022-08-11T05:50:04.250Z,32.50
2022-08-11T05:51:04.314Z,32.62
2022-08-11T05:52:05.184Z,32.81
2022-08-11T05:53:04.327Z,32.94
2022-08-11T05:54:04.419Z,33.06
2022-08-11T05:55:06.183Z,33.25
2022-08-11T05:56:03.903Z,33.38
2022-08-11T05:57:04.570Z,33.50
2022-08-11T05:58:03.744Z,33.62
2022-08-11T05:59:03.829Z,33.69
2022-08-11T06:00:03.917Z,33.88
2022-08-11T06:01:04.078Z,34.00
2022-08-11T06:02:04.128Z,34.12
2022-08-11T06:03:04.013Z,34.25
2022-08-11T06:04:04.086Z,34.31
2022-08-11T06:05:04.076Z,34.38
2022-08-11T06:06:04.236Z,34.44
2022-08-11T06:07:04.238Z,34.56
2022-08-11T06:08:04.391Z,34.62
2022-08-11T06:09:04.471Z,34.75
2022-08-11T06:10:04.526Z,34.75
2022-08-11T06:11:04.473Z,34.75
2022-08-11T06:12:04.385Z,34.69
2022-08-11T06:13:03.513Z,34.69
2022-08-11T06:14:03.590Z,34.81
2022-08-11T06:15:03.514Z,34.81
2022-08-11T06:16:06.780Z,34.75
2022-08-11T06:17:03.608Z,34.75
2022-08-11T06:18:03.590Z,34.69
2022-08-11T06:19:03.769Z,34.62
2022-08-11T06:20:04.266Z,34.62
2022-08-11T06:21:03.847Z,34.69
2022-08-11T06:22:03.916Z,34.56
2022-08-11T06:23:03.995Z,34.50
2022-08-11T06:24:03.996Z,34.38
2022-08-11T06:25:03.991Z,34.25
2022-08-11T06:26:04.068Z,34.25
2022-08-11T06:27:13.026Z,34.19
2022-08-11T06:28:04.240Z,34.06
2022-08-11T06:29:04.320Z,34.00
2022-08-11T06:30:04.234Z,33.88
2022-08-11T06:31:04.344Z,33.75
2022-08-11T06:32:04.488Z,33.69
2022-08-11T06:33:03.527Z,33.56
2022-08-11T06:34:03.590Z,33.44
2022-08-11T06:35:03.871Z,33.38
2022-08-11T06:36:03.836Z,33.38
2022-08-11T06:37:03.756Z,33.38
2022-08-11T06:38:03.995Z,33.31
2022-08-11T06:39:04.225Z,33.31
2022-08-11T06:40:04.154Z,33.38
2022-08-11T06:41:04.230Z,33.44
2022-08-11T06:42:04.249Z,33.50
2022-08-11T06:43:04.394Z,33.56
2022-08-11T06:44:05.388Z,33.62
2022-08-11T06:45:03.537Z,33.62
2022-08-11T06:46:03.610Z,33.69
2022-08-11T06:47:03.601Z,33.75
2022-08-11T06:48:03.691Z,33.81
2022-08-11T06:49:03.741Z,33.88
2022-08-11T06:50:03.675Z,34.00
2022-08-11T06:51:03.825Z,34.06
2022-08-11T06:52:04.439Z,34.12
2022-08-11T06:53:03.993Z,34.06
2022-08-11T06:54:05.500Z,34.12
2022-08-11T06:55:04.075Z,34.12
2022-08-11T06:56:04.073Z,34.25
2022-08-11T06:57:28.689Z,34.31
2022-08-11T06:58:04.068Z,34.25
2022-08-11T06:59:04.184Z,34.25
2022-08-11T07:00:04.149Z,34.38
2022-08-11T07:01:04.188Z,34.44
2022-08-11T07:02:04.307Z,34.50
2022-08-11T07:03:04.227Z,34.56
2022-08-11T07:04:04.397Z,34.50
2022-08-11T07:05:04.389Z,34.50
2022-08-11T07:06:03.506Z,34.50
2022-08-11T07:07:03.590Z,34.50
2022-08-11T07:08:34.981Z,34.62
2022-08-11T07:09:03.673Z,34.69
2022-08-11T07:10:04.720Z,34.75
2022-08-11T07:11:03.774Z,34.81
2022-08-11T07:12:03.826Z,34.81
2022-08-11T07:13:03.857Z,34.81
2022-08-11T07:14:03.849Z,34.88
2022-08-11T07:15:04.386Z,34.88
2022-08-11T07:16:10.527Z,34.88
2022-08-11T07:17:03.588Z,34.88
2022-08-11T07:18:03.589Z,34.88
2022-08-11T07:19:03.513Z,34.88
2022-08-11T07:20:03.685Z,34.94
2022-08-11T07:21:03.672Z,35.00
2022-08-11T07:22:04.164Z,35.12
2022-08-11T07:23:03.827Z,35.06
2022-08-11T07:24:04.074Z,35.06
2022-08-11T07:25:04.025Z,35.06
2022-08-11T07:26:04.236Z,35.06
2022-08-11T07:27:04.156Z,35.06
2022-08-11T07:28:04.234Z,35.12
2022-08-11T07:29:04.404Z,35.12
2022-08-11T07:30:04.404Z,35.12
2022-08-11T07:31:03.516Z,35.19
2022-08-11T07:32:03.631Z,35.19
2022-08-11T07:33:03.588Z,35.25
2022-08-11T07:34:06.187Z,35.31
2022-08-11T07:35:03.671Z,35.25
2022-08-11T07:36:03.666Z,35.31
2022-08-11T07:37:03.841Z,35.31
2022-08-11T07:38:06.990Z,35.31
2022-08-11T07:39:03.906Z,35.38
2022-08-11T07:40:04.007Z,35.38
2022-08-11T07:41:04.096Z,35.38
2022-08-11T07:42:03.917Z,35.44
2022-08-11T07:43:04.069Z,35.44
2022-08-11T07:44:04.068Z,35.38
2022-08-11T07:45:04.072Z,35.25
2022-08-11T07:46:04.188Z,35.25
2022-08-11T07:47:04.224Z,35.31
2022-08-11T07:48:04.231Z,35.38
2022-08-11T07:49:04.399Z,35.38
2022-08-11T07:50:04.399Z,35.44
2022-08-11T07:51:04.406Z,35.44
2022-08-11T07:52:04.305Z,35.44
2022-08-11T07:53:04.310Z,35.44
2022-08-11T07:54:16.760Z,35.50
2022-08-11T07:55:04.310Z,35.50
2022-08-11T07:56:04.409Z,35.50
2022-08-11T07:57:07.696Z,35.44
2022-08-11T07:58:15.641Z,35.38
2022-08-11T07:59:08.348Z,35.38
2022-08-11T08:00:05.014Z,35.19
2022-08-11T08:01:03.892Z,35.19
2022-08-11T08:02:04.000Z,35.25
2022-08-11T08:03:04.396Z,35.31
2022-08-11T08:04:04.467Z,35.38
2022-08-11T08:05:04.555Z,35.31
2022-08-11T08:06:03.509Z,35.12
2022-08-11T08:07:03.670Z,35.06
2022-08-11T08:08:03.836Z,35.06
2022-08-11T08:09:03.909Z,35.00
2022-08-11T08:10:04.023Z,34.94
2022-08-11T08:11:03.929Z,34.88
2022-08-11T08:12:03.831Z,34.88
2022-08-11T08:13:03.909Z,34.88
2022-08-11T08:14:03.898Z,34.94
2022-08-11T08:15:03.984Z,34.81
2022-08-11T08:16:03.988Z,34.56
2022-08-11T08:17:04.071Z,34.31
2022-08-11T08:18:08.692Z,34.19
2022-08-11T08:19:04.162Z,34.12
2022-08-11T08:20:04.169Z,34.12
2022-08-11T08:21:04.248Z,34.12
2022-08-11T08:22:06.164Z,33.88
2022-08-11T08:23:04.390Z,33.69
2022-08-11T08:24:04.481Z,33.50
2022-08-11T08:25:04.391Z,33.25
2022-08-11T08:26:04.309Z,33.25
2022-08-11T08:27:04.399Z,33.25
2022-08-11T08:28:03.508Z,33.12
2022-08-11T08:29:03.678Z,33.12
2022-08-11T08:30:03.605Z,33.00
2022-08-11T08:31:03.666Z,32.81
2022-08-11T08:32:03.666Z,32.62
2022-08-11T08:33:04.063Z,32.50
2022-08-11T08:34:04.148Z,32.31
2022-08-11T08:35:04.229Z,32.19
2022-08-11T08:36:04.233Z,32.06
2022-08-11T08:37:15.552Z,32.19
2022-08-11T08:38:04.232Z,32.25
2022-08-11T08:39:04.318Z,32.19
2022-08-11T08:40:04.234Z,32.06
2022-08-11T08:41:04.393Z,31.88
2022-08-11T08:42:04.477Z,31.75
2022-08-11T08:43:04.425Z,31.69
2022-08-11T08:44:27.575Z,31.50
2022-08-11T08:45:03.594Z,31.38
2022-08-11T08:46:03.755Z,31.25
2022-08-11T08:47:03.765Z,31.00
2022-08-11T08:48:03.752Z,30.81
2022-08-11T08:49:03.750Z,30.75
2022-08-11T08:50:03.848Z,30.69
2022-08-11T08:51:03.829Z,30.56
2022-08-11T08:52:25.330Z,30.56
2022-08-11T08:53:03.928Z,30.62
2022-08-11T08:54:03.916Z,30.69
2022-08-11T08:55:04.007Z,30.75
2022-08-11T08:56:04.008Z,30.56
2022-08-11T08:57:04.089Z,30.50
2022-08-11T08:58:04.002Z,30.38
2022-08-11T08:59:03.588Z,30.19
2022-08-11T09:00:03.606Z,30.19
2022-08-11T09:01:03.711Z,30.00
2022-08-11T09:02:03.755Z,29.88
2022-08-11T09:03:17.442Z,29.75
2022-08-11T09:04:10.667Z,29.69
2022-08-11T09:05:04.265Z,29.56
2022-08-11T09:06:04.244Z,29.44
2022-08-11T09:07:04.222Z,29.38
2022-08-11T09:08:04.383Z,29.31
2022-08-11T09:09:04.381Z,29.25
2022-08-11T09:10:04.404Z,29.31
2022-08-11T09:11:03.530Z,29.38
2022-08-11T09:12:03.505Z,29.44
2022-08-11T09:13:03.665Z,29.44
2022-08-11T09:14:05.763Z,29.38
2022-08-11T09:15:03.753Z,29.31
2022-08-11T09:16:04.491Z,29.19
2022-08-11T09:17:04.464Z,29.19
2022-08-11T09:18:04.469Z,29.06
2022-08-11T09:19:04.465Z,29.00
2022-08-11T09:20:04.389Z,28.94
2022-08-11T09:21:03.502Z,28.88
2022-08-11T09:22:03.608Z,28.69
2022-08-11T09:23:41.598Z,28.69
2022-08-11T09:24:11.405Z,28.62
2022-08-11T09:25:03.673Z,28.50
2022-08-11T09:26:03.711Z,28.38
2022-08-11T09:27:03.675Z,28.38
2022-08-11T09:28:04.391Z,28.44
2022-08-11T09:29:04.151Z,28.38
2022-08-11T09:30:04.170Z,28.44
2022-08-11T09:31:03.588Z,28.38
2022-08-11T09:32:03.753Z,28.38
2022-08-11T09:33:03.669Z,28.38
2022-08-11T09:34:03.818Z,28.31
2022-08-11T09:35:03.904Z,28.31
2022-08-11T09:36:04.404Z,28.25
2022-08-11T09:37:04.312Z,28.25
2022-08-11T09:38:04.411Z,28.19
2022-08-11T09:39:03.675Z,28.19
2022-08-11T09:40:03.766Z,28.19
2022-08-11T09:41:03.689Z,28.25
2022-08-11T09:42:04.258Z,28.25
2022-08-11T09:43:03.709Z,28.25
2022-08-11T09:44:04.244Z,28.19
2022-08-11T09:45:03.678Z,28.19
2022-08-11T09:46:03.673Z,28.19
2022-08-11T09:47:03.680Z,28.19
2022-08-11T09:48:03.746Z,28.06
2022-08-11T09:49:03.694Z,28.06
2022-08-11T09:50:03.758Z,28.06
2022-08-11T09:51:03.744Z,28.06
2022-08-11T09:52:05.244Z,28.06
2022-08-11T09:53:35.568Z,28.12
2022-08-11T09:54:04.253Z,28.12
2022-08-11T09:55:04.260Z,28.12
2022-08-11T09:56:04.394Z,28.12
2022-08-11T09:57:05.410Z,28.12
2022-08-11T09:58:04.312Z,28.12
2022-08-11T09:59:04.401Z,28.12
2022-08-11T10:00:11.416Z,28.12
2022-08-11T10:01:03.627Z,28.06
2022-08-11T10:02:03.713Z,28.06
2022-08-11T10:03:03.512Z,28.19
2022-08-11T10:04:03.662Z,28.25
2022-08-11T10:05:03.688Z,28.25
2022-08-11T10:06:07.376Z,28.31
2022-08-11T10:07:04.146Z,28.31
2022-08-11T10:08:03.772Z,28.25
2022-08-11T10:09:03.938Z,28.25
2022-08-11T10:10:03.829Z,28.25
2022-08-11T10:11:04.156Z,28.25
2022-08-11T10:12:04.238Z,28.12
2022-08-11T10:13:04.146Z,28.06
2022-08-11T10:14:30.755Z,28.06
2022-08-11T10:15:04.390Z,28.12
2022-08-11T10:16:14.501Z,28.06
2022-08-11T10:17:03.522Z,28.12
2022-08-11T10:18:03.603Z,28.12
2022-08-11T10:19:03.595Z,28.19
2022-08-11T10:20:04.578Z,28.12
2022-08-11T10:21:03.682Z,28.12
2022-08-11T10:22:03.923Z,28.06
2022-08-11T10:23:03.913Z,28.06
2022-08-11T10:24:05.541Z,28.12
2022-08-11T10:25:03.924Z,28.12
2022-08-11T10:26:03.995Z,28.06
2022-08-11T10:27:03.927Z,28.00
2022-08-11T10:28:18.532Z,27.94
2022-08-11T10:29:12.846Z,27.88
2022-08-11T10:30:03.588Z,27.88
2022-08-11T10:31:03.685Z,27.88
2022-08-11T10:32:04.301Z,27.88
2022-08-11T10:33:03.863Z,27.94
2022-08-11T10:34:04.068Z,27.94
2022-08-11T10:35:03.908Z,27.88
2022-08-11T10:36:04.407Z,27.81
2022-08-11T10:37:04.466Z,27.81
2022-08-11T10:38:07.098Z,27.81
2022-08-11T10:39:04.468Z,27.81
2022-08-11T10:40:04.472Z,27.75
2022-08-11T10:41:03.425Z,27.75
2022-08-11T10:42:07.524Z,27.81
2022-08-11T10:43:03.614Z,27.88
2022-08-11T10:44:04.077Z,27.88
2022-08-11T10:45:03.672Z,28.00
2022-08-11T10:46:03.853Z,28.06
2022-08-11T10:47:03.830Z,28.06
2022-08-11T10:48:03.826Z,28.00
2022-08-11T10:49:03.913Z,28.06
2022-08-11T10:50:05.209Z,28.06
2022-08-11T10:51:03.831Z,28.06
2022-08-11T10:52:03.939Z,28.12
2022-08-11T10:53:04.075Z,28.12
2022-08-11T10:54:03.981Z,28.12
2022-08-11T10:55:04.172Z,28.12
2022-08-11T10:57:04.146Z,28.12
2022-08-11T10:58:05.443Z,28.12
2022-08-11T10:59:04.408Z,28.19
2022-08-11T11:00:04.398Z,28.19
2022-08-11T11:01:04.526Z,28.19
2022-08-11T11:02:04.490Z,28.25
2022-08-11T11:03:05.407Z,28.25
2022-08-11T11:04:03.791Z,28.31
2022-08-11T11:05:03.687Z,28.31
2022-08-11T11:06:12.503Z,28.38
2022-08-11T11:07:03.745Z,28.44
2022-08-11T11:08:03.829Z,28.44
2022-08-11T11:09:04.914Z,28.50
2022-08-11T11:10:03.838Z,28.50
2022-08-11T11:11:03.747Z,28.56
2022-08-11T11:12:03.747Z,28.56
2022-08-11T11:13:03.836Z,28.56
2022-08-11T11:14:03.949Z,28.62
2022-08-11T11:15:03.859Z,28.62
2022-08-11T11:16:03.916Z,28.69
2022-08-11T11:17:04.083Z,28.75
2022-08-11T11:18:04.153Z,28.75
2022-08-11T11:19:04.232Z,28.75
2022-08-11T11:20:04.238Z,28.62
2022-08-11T11:21:04.317Z,28.56
2022-08-11T11:22:04.225Z,28.56
2022-08-11T11:23:04.229Z,28.50
2022-08-11T11:24:04.338Z,28.50
2022-08-11T11:25:04.389Z,28.50
2022-08-11T11:26:04.381Z,28.50
2022-08-11T11:27:04.465Z,28.56
2022-08-11T11:28:04.391Z,28.62
2022-08-11T11:29:03.513Z,28.69
2022-08-11T11:30:03.912Z,28.69
2022-08-11T11:31:04.098Z,28.69
2022-08-11T11:32:04.074Z,28.69
2022-08-11T11:33:03.989Z,28.75
2022-08-11T11:34:07.032Z,28.75
2022-08-11T11:35:04.076Z,28.69
2022-08-11T11:36:04.062Z,28.69
2022-08-11T11:37:04.234Z,28.75
2022-08-11T11:38:05.645Z,28.81
2022-08-11T11:39:04.310Z,28.81
2022-08-11T11:40:04.229Z,28.81
2022-08-11T11:41:04.322Z,28.88
2022-08-11T11:42:04.388Z,28.88
2022-08-11T11:43:03.501Z,28.75
2022-08-11T11:44:03.588Z,28.75
2022-08-11T11:45:03.671Z,28.75
2022-08-11T11:46:03.906Z,28.69
2022-08-11T11:47:03.899Z,28.69
2022-08-11T11:48:04.098Z,28.75
2022-08-11T11:49:04.169Z,28.81
2022-08-11T11:50:04.163Z,28.81
2022-08-11T11:51:04.151Z,28.81
2022-08-11T11:52:04.251Z,28.81
2022-08-11T11:53:04.309Z,28.88
2022-08-11T11:54:04.309Z,28.94
2022-08-11T11:55:04.226Z,28.94
2022-08-11T11:56:04.219Z,28.81
2022-08-11T11:57:04.222Z,28.69
2022-08-11T11:58:04.397Z,28.69
2022-08-11T11:59:03.507Z,28.69
2022-08-11T12:00:03.576Z,28.69
2022-08-11T12:01:03.603Z,28.69
2022-08-11T12:02:07.538Z,28.75
2022-08-11T12:03:03.765Z,28.62
2022-08-11T12:04:03.671Z,28.69
2022-08-11T12:05:03.746Z,28.69
2022-08-11T12:06:03.744Z,28.69
2022-08-11T12:07:03.846Z,28.69
2022-08-11T12:08:06.547Z,28.75
2022-08-11T12:09:04.020Z,28.75
2022-08-11T12:10:03.985Z,28.62
2022-08-11T12:11:04.141Z,28.69
2022-08-11T12:12:04.159Z,28.69
2022-08-11T12:13:04.312Z,28.69
2022-08-11T12:14:04.700Z,28.75
2022-08-11T12:15:04.398Z,28.75
2022-08-11T12:16:32.657Z,28.81
2022-08-11T12:17:03.745Z,28.81
2022-08-11T12:18:03.832Z,28.75
2022-08-11T12:19:03.815Z,28.69
2022-08-11T12:20:03.926Z,28.69
2022-08-11T12:21:03.905Z,28.75
2022-08-11T12:22:03.910Z,28.75
2022-08-11T12:23:04.154Z,28.81
2022-08-11T12:24:04.526Z,28.88
2022-08-11T12:25:04.143Z,28.88
2022-08-11T12:26:25.659Z,28.94
2022-08-11T12:27:16.862Z,29.00
2022-08-11T12:28:04.472Z,29.00
2022-08-11T12:29:04.390Z,29.00
2022-08-11T12:30:03.551Z,29.00
2022-08-11T12:31:03.514Z,29.00
2022-08-11T12:32:04.587Z,29.06
2022-08-11T12:33:03.675Z,29.12
2022-08-11T12:34:03.760Z,29.19
2022-08-11T12:35:03.826Z,29.25
2022-08-11T12:36:03.988Z,29.25
2022-08-11T12:37:04.035Z,29.31
2022-08-11T12:38:09.433Z,29.38
2022-08-11T12:39:04.850Z,29.44
2022-08-11T12:40:17.306Z,29.50
2022-08-11T12:41:15.944Z,29.44
2022-08-11T12:42:03.862Z,29.38
2022-08-11T12:43:04.155Z,29.31
2022-08-11T12:44:03.991Z,29.31
2022-08-11T12:45:03.991Z,29.19
2022-08-11T12:46:04.004Z,29.19
2022-08-11T12:47:04.316Z,29.19
2022-08-11T12:48:07.934Z,29.19
2022-08-11T12:49:04.698Z,29.19
2022-08-11T12:50:04.389Z,29.12
2022-08-11T12:51:03.519Z,29.06
2022-08-11T12:52:12.673Z,29.00
2022-08-11T12:53:03.775Z,29.06
2022-08-11T12:54:04.068Z,29.12